createdAt,value
2022-10-24T00:01:16.651Z,97603.00
2022-10-24T00:03:43.571Z,97609.88
2022-10-24T00:06:11.380Z,97630.03
2022-10-24T00:08:38.891Z,97645.97
2022-10-24T00:11:14.723Z,97661.91
2022-10-24T00:13:41.939Z,97679.22
2022-10-24T00:16:09.227Z,97685.47
2022-10-24T00:18:35.988Z,97717.38
2022-10-24T00:21:03.271Z,97732.59
2022-10-24T00:23:30.034Z,97764.47
2022-10-24T00:25:56.910Z,97772.81
2022-10-24T00:28:23.727Z,97786.69
2022-10-24T00:30:53.317Z,97763.06
2022-10-24T00:33:20.205Z,97760.88
2022-10-24T00:35:46.780Z,97778.91
2022-10-24T00:38:13.571Z,97749.69
2022-10-24T00:40:40.623Z,97771.91
2022-10-24T00:43:14.891Z,97757.94
2022-10-24T00:45:48.435Z,97765.66
2022-10-24T00:48:35.086Z,97769.03
2022-10-24T00:51:11.184Z,97771.72
2022-10-24T00:53:43.633Z,97771.00
2022-10-24T00:56:13.003Z,97785.50
2022-10-24T00:58:43.345Z,97779.25
2022-10-24T01:01:10.770Z,97775.75
2022-10-24T01:03:38.155Z,97775.75
2022-10-24T01:06:44.269Z,97779.88
2022-10-24T01:09:47.566Z,97788.22
2022-10-24T01:12:39.558Z,97788.81
2022-10-24T01:15:47.942Z,97795.72
2022-10-24T01:18:28.417Z,97794.28
2022-10-24T01:21:24.969Z,97799.84
2022-10-24T01:24:17.370Z,97802.63
2022-10-24T01:27:12.290Z,97801.88
2022-10-24T01:29:51.109Z,97797.69
2022-10-24T01:33:10.430Z,97804.56
2022-10-24T01:36:00.226Z,97792.75
2022-10-24T01:38:39.018Z,97802.31
2022-10-24T01:41:10.062Z,97791.22
2022-10-24T01:43:43.010Z,97798.84
2022-10-24T01:46:15.547Z,97790.50
2022-10-24T01:48:49.295Z,97797.38
2022-10-24T01:51:20.078Z,97780.72
2022-10-24T01:53:48.323Z,97785.56
2022-10-24T01:56:15.207Z,97776.53
2022-10-24T01:58:41.787Z,97788.34
2022-10-24T02:01:14.073Z,97776.53
2022-10-24T02:04:00.999Z,97779.22
2022-10-24T02:06:34.538Z,97781.19
2022-10-24T02:09:07.688Z,97799.97
2022-10-24T02:11:35.461Z,97790.94
2022-10-24T02:14:10.567Z,97804.09
2022-10-24T02:16:37.581Z,97791.56
2022-10-24T02:19:05.041Z,97801.97
2022-10-24T02:21:44.921Z,97804.09
2022-10-24T02:24:21.936Z,97803.38
2022-10-24T02:27:16.725Z,97810.28
2022-10-24T02:30:12.618Z,97816.53
2022-10-24T02:32:46.746Z,97824.75
2022-10-24T02:35:16.438Z,97833.81
2022-10-24T02:37:47.606Z,97821.47
2022-10-24T02:40:17.145Z,97826.50
2022-10-24T02:42:46.190Z,97830.81
2022-10-24T02:45:15.416Z,97828.84
2022-10-24T02:47:45.049Z,97842.81
2022-10-24T02:50:12.768Z,97833.88
2022-10-24T02:52:41.396Z,97828.50
2022-10-24T02:55:08.654Z,97828.75
2022-10-24T02:57:35.300Z,97827.53
2022-10-24T03:00:02.195Z,97834.00
2022-10-24T03:02:28.776Z,97825.13
2022-10-24T03:04:55.370Z,97822.44
2022-10-24T03:07:22.150Z,97817.69
2022-10-24T03:09:48.832Z,97821.94
2022-10-24T03:12:16.927Z,97812.25
2022-10-24T03:14:45.106Z,97810.28
2022-10-24T03:17:11.759Z,97811.00
2022-10-24T03:19:38.620Z,97806.16
2022-10-24T03:22:05.330Z,97812.47
2022-10-24T03:24:43.819Z,97804.13
2022-10-24T03:27:18.764Z,97807.63
2022-10-24T03:29:45.370Z,97805.56
2022-10-24T03:32:11.983Z,97804.84
2022-10-24T03:34:38.809Z,97797.22
2022-10-24T03:37:05.418Z,97794.44
2022-10-24T03:39:32.008Z,97797.22
2022-10-24T03:41:59.492Z,97798.66
2022-10-24T03:44:26.106Z,97808.34
2022-10-24T03:46:52.733Z,97809.03
2022-10-24T03:49:19.363Z,97802.13
2022-10-24T03:51:46.178Z,97802.25
2022-10-24T03:54:15.247Z,97805.19
2022-10-24T03:56:48.038Z,97789.53
2022-10-24T03:59:15.401Z,97780.09
2022-10-24T04:01:42.264Z,97768.53
2022-10-24T04:04:08.914Z,97770.94
2022-10-24T04:06:36.653Z,97759.38
2022-10-24T04:09:03.996Z,97753.34
2022-10-24T04:11:30.658Z,97757.75
2022-10-24T04:13:57.807Z,97745.44
2022-10-24T04:16:24.541Z,97756.72
2022-10-24T04:18:51.427Z,97765.25
2022-10-24T04:21:21.524Z,97748.03
2022-10-24T04:23:48.883Z,97760.66
2022-10-24T04:26:17.251Z,97757.25
2022-10-24T04:28:44.659Z,97751.03
2022-10-24T04:31:11.232Z,97748.34
2022-10-24T04:33:38.169Z,97747.03
2022-10-24T04:36:05.546Z,97747.75
2022-10-24T04:38:33.624Z,97730.44
2022-10-24T04:41:00.876Z,97719.31
2022-10-24T04:43:27.793Z,97722.09
2022-10-24T04:45:54.382Z,97725.59
2022-10-24T04:48:21.111Z,97724.88
2022-10-24T04:50:48.391Z,97731.88
2022-10-24T04:53:15.715Z,97723.53
2022-10-24T04:55:42.401Z,97728.38
2022-10-24T04:58:09.266Z,97716.53
2022-10-24T05:00:36.093Z,97725.59
2022-10-24T05:03:03.154Z,97723.53
2022-10-24T05:05:29.743Z,97708.19
2022-10-24T05:07:56.394Z,97713.66
2022-10-24T05:10:23.051Z,97713.53
2022-10-24T05:12:49.738Z,97723.25
2022-10-24T05:15:18.555Z,97724.59
2022-10-24T05:17:45.214Z,97721.09
2022-10-24T05:20:12.012Z,97724.50
2022-10-24T05:22:38.647Z,97734.19
2022-10-24T05:25:06.389Z,97726.50
2022-10-24T05:27:32.966Z,97731.34
2022-10-24T05:29:59.635Z,97710.53
2022-10-24T05:32:26.678Z,97704.97
2022-10-24T05:34:53.268Z,97704.25
2022-10-24T05:37:20.198Z,97701.47
2022-10-24T05:39:46.837Z,97710.44
2022-10-24T05:42:13.467Z,97728.47
2022-10-24T05:44:40.056Z,97716.63
2022-10-24T05:47:06.954Z,97715.94
2022-10-24T05:49:34.016Z,97715.94
2022-10-24T05:52:00.640Z,97715.22
2022-10-24T05:54:33.318Z,97722.81
2022-10-24T05:57:09.441Z,97711.69
2022-10-24T05:59:36.298Z,97710.44
2022-10-24T06:02:03.019Z,97706.41
2022-10-24T06:04:29.716Z,97705.19
2022-10-24T06:06:56.367Z,97704.06
2022-10-24T06:09:22.965Z,97711.13
2022-10-24T06:11:49.767Z,97708.50
2022-10-24T06:14:16.974Z,97702.41
2022-10-24T06:16:43.589Z,97705.34
2022-10-24T06:19:10.171Z,97713.84
2022-10-24T06:21:36.818Z,97714.53
2022-10-24T06:24:03.874Z,97708.38
2022-10-24T06:26:30.462Z,97692.38
2022-10-24T06:28:57.131Z,97696.59
2022-10-24T06:31:25.727Z,97698.72
2022-10-24T06:33:54.147Z,97698.00
2022-10-24T06:36:21.289Z,97707.81
2022-10-24T06:38:48.750Z,97701.50
2022-10-24T06:41:17.244Z,97699.47
2022-10-24T06:43:44.025Z,97707.06
2022-10-24T06:46:13.598Z,97697.41
2022-10-24T06:48:40.248Z,97702.25
2022-10-24T06:51:07.641Z,97711.31
2022-10-24T06:53:34.485Z,97717.56
2022-10-24T06:56:06.455Z,97714.72
2022-10-24T06:58:37.109Z,97707.06
2022-10-24T07:01:19.231Z,97714.72
2022-10-24T07:03:46.094Z,97711.75
2022-10-24T07:08:56.907Z,97721.38
2022-10-24T07:11:24.027Z,97727.50
2022-10-24T07:13:50.683Z,97731.63
2022-10-24T07:16:18.082Z,97730.28
2022-10-24T07:18:45.627Z,97726.78
2022-10-24T07:21:19.942Z,97737.19
2022-10-24T07:23:46.859Z,97741.41
2022-10-24T07:26:15.306Z,97741.41
2022-10-24T07:28:44.598Z,97732.34
2022-10-24T07:31:14.814Z,97735.06
2022-10-24T07:33:41.467Z,97730.81
2022-10-24T07:36:08.601Z,97732.84
2022-10-24T07:38:35.358Z,97733.53
2022-10-24T07:41:05.782Z,97735.50
2022-10-24T07:43:32.747Z,97731.31
2022-10-24T07:48:30.995Z,97738.22
2022-10-24T07:50:57.652Z,97745.13
2022-10-24T07:53:26.084Z,97741.63
2022-10-24T07:55:54.545Z,97736.00
2022-10-24T07:58:21.294Z,97729.78
2022-10-24T08:00:47.926Z,97729.25
2022-10-24T08:03:14.703Z,97726.56
2022-10-24T08:05:42.401Z,97740.53
2022-10-24T08:08:27.402Z,97744.81
2022-10-24T08:10:55.990Z,97741.41
2022-10-24T08:13:22.658Z,97747.78
2022-10-24T08:15:49.257Z,97738.81
2022-10-24T08:18:15.876Z,97746.41
2022-10-24T08:20:42.458Z,97736.72
2022-10-24T08:23:09.433Z,97743.63
2022-10-24T08:25:40.553Z,97749.19
2022-10-24T08:28:09.078Z,97744.38
2022-10-24T08:30:35.960Z,97738.06
2022-10-24T08:33:02.627Z,97739.41
2022-10-24T08:35:29.449Z,97733.84
2022-10-24T08:37:56.054Z,97735.94
2022-10-24T08:40:22.723Z,97724.81
2022-10-24T08:42:49.681Z,97735.22
2022-10-24T08:45:36.178Z,97742.91
2022-10-24T08:48:09.867Z,97744.28
2022-10-24T08:50:41.754Z,97740.69
2022-10-24T08:53:30.051Z,97739.25
2022-10-24T08:56:00.101Z,97737.84
2022-10-24T08:58:31.638Z,97733.69
2022-10-24T09:01:02.459Z,97729.66
2022-10-24T09:03:56.077Z,97739.59
2022-10-24T09:06:26.364Z,97738.31
2022-10-24T09:08:56.270Z,97732.91
2022-10-24T09:11:45.470Z,97724.00
2022-10-24T09:14:29.673Z,97713.13
2022-10-24T09:17:29.234Z,97712.63
2022-10-24T09:20:35.222Z,97713.44
2022-10-24T09:23:05.832Z,97710.09
2022-10-24T09:25:36.596Z,97706.69
2022-10-24T09:28:05.654Z,97705.94
2022-10-24T09:30:33.561Z,97696.28
2022-10-24T09:33:24.402Z,97686.56
2022-10-24T09:35:54.506Z,97673.34
2022-10-24T09:38:33.418Z,97685.91
2022-10-24T09:41:19.444Z,97701.97
2022-10-24T09:43:53.368Z,97697.03
2022-10-24T09:46:23.953Z,97687.34
2022-10-24T09:49:22.551Z,97678.34
2022-10-24T09:52:19.696Z,97663.72
2022-10-24T09:54:47.324Z,97665.25
2022-10-24T09:57:17.837Z,97681.22
2022-10-24T10:00:00.411Z,97685.34
2022-10-24T10:02:28.075Z,97688.78
2022-10-24T10:05:23.983Z,97679.72
2022-10-24T10:07:51.594Z,97677.56
2022-10-24T10:10:34.405Z,97683.88
2022-10-24T10:13:24.682Z,97706.13
2022-10-24T10:16:02.753Z,97701.19
2022-10-24T10:18:34.961Z,97691.47
2022-10-24T10:21:06.876Z,97699.13
2022-10-24T10:23:53.984Z,97686.56
2022-10-24T10:26:42.713Z,97670.50
2022-10-24T10:29:29.523Z,97661.44
2022-10-24T10:32:24.327Z,97667.63
2022-10-24T10:35:11.482Z,97664.78
2022-10-24T10:37:48.456Z,97672.50
2022-10-24T10:40:44.268Z,97684.25
2022-10-24T10:43:35.079Z,97682.19
2022-10-24T10:46:44.554Z,97672.41
2022-10-24T10:49:28.069Z,97655.72
2022-10-24T10:52:00.969Z,97657.78
2022-10-24T10:55:29.259Z,97647.31
2022-10-24T10:58:41.308Z,97635.47
2022-10-24T11:01:39.349Z,97640.28
2022-10-24T11:04:53.053Z,97638.88
2022-10-24T11:07:51.475Z,97638.16
2022-10-24T11:10:22.912Z,97637.44
2022-10-24T11:12:49.605Z,97638.88
2022-10-24T11:15:27.214Z,97631.94
2022-10-24T11:21:21.505Z,97635.47
2022-10-24T11:26:52.792Z,97636.16
2022-10-24T11:29:51.266Z,97628.44
2022-10-24T11:32:55.410Z,97624.34
2022-10-24T11:35:37.197Z,97618.75
2022-10-24T11:38:13.765Z,97620.19
2022-10-24T11:40:43.747Z,97612.47
2022-10-24T11:43:24.746Z,97613.81
2022-10-24T11:46:31.569Z,97615.91
2022-10-24T11:49:03.176Z,97608.91
2022-10-24T11:51:55.256Z,97598.50
2022-10-24T11:54:29.941Z,97602.63
2022-10-24T11:57:02.056Z,97601.19
2022-10-24T11:59:30.643Z,97601.84
2022-10-24T12:03:02.871Z,97598.34
2022-10-24T12:06:05.172Z,97615.75
2022-10-24T12:09:18.136Z,97614.94
2022-10-24T12:12:06.143Z,97622.59
2022-10-24T12:15:11.893Z,97614.88
2022-10-24T12:18:05.509Z,97607.16
2022-10-24T12:20:33.071Z,97608.59
2022-10-24T12:23:02.087Z,97607.88
2022-10-24T12:25:35.669Z,97601.59
2022-10-24T12:28:12.217Z,97603.69
2022-10-24T12:30:39.672Z,97598.81
2022-10-24T12:33:27.065Z,97586.28
2022-10-24T12:35:57.315Z,97574.44
2022-10-24T12:38:58.778Z,97573.06
2022-10-24T12:41:39.507Z,97573.72
2022-10-24T12:44:44.960Z,97585.56
2022-10-24T12:47:34.890Z,97598.03
2022-10-24T12:50:40.505Z,97600.09
2022-10-24T12:53:19.939Z,97589.06
2022-10-24T12:56:11.802Z,97591.19
2022-10-24T12:58:42.687Z,97586.31
2022-10-24T13:01:27.490Z,97587.06
2022-10-24T13:04:29.054Z,97575.94
2022-10-24T13:07:50.584Z,97579.44
2022-10-24T13:10:48.017Z,97579.44
2022-10-24T13:13:54.126Z,97583.63
2022-10-24T13:17:00.430Z,97582.94
2022-10-24T13:19:27.990Z,97596.13
2022-10-24T13:21:57.297Z,97596.13
2022-10-24T13:24:35.567Z,97594.75
2022-10-24T13:27:30.156Z,97605.88
2022-10-24T13:30:03.445Z,97608.69
2022-10-24T13:32:36.001Z,97605.19
2022-10-24T13:35:05.703Z,97616.31
2022-10-24T13:37:40.753Z,97614.16
2022-10-24T13:40:33.255Z,97618.38
2022-10-24T13:43:07.532Z,97625.38
2022-10-24T13:46:13.120Z,97621.88
2022-10-24T13:48:48.102Z,97630.84
2022-10-24T13:51:25.706Z,97637.84
2022-10-24T13:54:04.019Z,97643.41
2022-10-24T13:56:37.476Z,97654.56
2022-10-24T13:59:04.171Z,97649.69
2022-10-24T14:01:31.462Z,97662.19
2022-10-24T14:04:00.667Z,97675.34
2022-10-24T14:06:36.152Z,97681.66
2022-10-24T14:09:10.254Z,97674.03
2022-10-24T14:11:43.873Z,97678.22
2022-10-24T14:14:32.343Z,97682.38
2022-10-24T14:17:23.881Z,97691.34
2022-10-24T14:19:55.476Z,97698.34
2022-10-24T14:22:27.866Z,97703.91
2022-10-24T14:24:54.614Z,97710.91
2022-10-24T14:27:21.646Z,97716.47
2022-10-24T14:29:58.901Z,97724.09
2022-10-24T14:32:28.058Z,97726.88
2022-10-24T14:34:57.251Z,97738.00
2022-10-24T14:37:30.589Z,97733.16
2022-10-24T14:39:57.890Z,97731.72
2022-10-24T14:42:25.654Z,97734.59
2022-10-24T14:44:57.480Z,97733.16
2022-10-24T14:47:34.418Z,97733.88
2022-10-24T14:50:01.068Z,97732.50
2022-10-24T14:52:37.266Z,97731.81
2022-10-24T14:55:24.751Z,97736.75
2022-10-24T14:57:52.896Z,97735.38
2022-10-24T15:00:22.784Z,97743.03
2022-10-24T15:02:51.785Z,97741.56
2022-10-24T15:05:36.434Z,97754.16
2022-10-24T15:08:39.598Z,97751.28
2022-10-24T15:11:35.771Z,97753.44
2022-10-24T15:14:07.054Z,97750.25
2022-10-24T15:16:40.734Z,97756.13
2022-10-24T15:19:14.731Z,97756.28
2022-10-24T15:21:44.073Z,97760.66
2022-10-24T15:24:25.228Z,97764.22
2022-10-24T15:26:51.951Z,97760.81
2022-10-24T15:29:23.149Z,97764.31
2022-10-24T15:31:51.943Z,97760.88
2022-10-24T15:34:23.872Z,97762.31
2022-10-24T15:36:52.702Z,97760.97
2022-10-24T15:39:22.344Z,97756.75
2022-10-24T15:41:49.391Z,97763.06
2022-10-24T15:44:19.335Z,97760.28
2022-10-24T15:46:46.672Z,97758.81
2022-10-24T15:49:14.204Z,97754.53
2022-10-24T15:51:45.950Z,97757.94
2022-10-24T15:54:17.478Z,97756.53
2022-10-24T15:56:44.054Z,97750.97
2022-10-24T15:59:10.614Z,97761.38
2022-10-24T16:01:44.488Z,97756.44
2022-10-24T16:04:11.543Z,97763.28
2022-10-24T16:06:38.114Z,97768.78
2022-10-24T16:09:16.090Z,97764.47
2022-10-24T16:11:42.926Z,97769.25
2022-10-24T16:14:17.620Z,97772.59
2022-10-24T16:16:44.961Z,97771.16
2022-10-24T16:19:11.768Z,97773.22
2022-10-24T16:21:40.001Z,97776.00
2022-10-24T16:24:07.734Z,97771.16
2022-10-24T16:26:35.076Z,97769.88
2022-10-24T16:29:01.662Z,97764.94
2022-10-24T16:31:28.247Z,97763.69
2022-10-24T16:33:54.833Z,97761.69
2022-10-24T16:36:24.601Z,97752.69
2022-10-24T16:38:51.864Z,97757.66
2022-10-24T16:41:24.005Z,97763.91
2022-10-24T16:43:53.680Z,97753.59
2022-10-24T16:46:21.401Z,97755.09
2022-10-24T16:48:48.995Z,97750.25
2022-10-24T16:51:19.454Z,97753.59
2022-10-24T16:53:46.102Z,97744.50
2022-10-24T16:56:14.176Z,97750.88
2022-10-24T16:58:41.209Z,97755.09
2022-10-24T17:01:11.003Z,97765.50
2022-10-24T17:03:38.510Z,97764.78
2022-10-24T17:06:05.854Z,97757.72
2022-10-24T17:08:32.785Z,97755.63
2022-10-24T17:11:00.958Z,97755.63
2022-10-24T17:13:29.026Z,97766.78
2022-10-24T17:15:58.874Z,97775.13
2022-10-24T17:18:26.739Z,97773.69
2022-10-24T17:21:00.150Z,97777.91
2022-10-24T17:23:27.822Z,97777.19
2022-10-24T17:25:55.585Z,97766.78
2022-10-24T17:28:22.543Z,97758.34
2022-10-24T17:30:49.346Z,97748.66
2022-10-24T17:33:16.277Z,97750.00
2022-10-24T17:35:51.326Z,97746.50
2022-10-24T17:38:42.300Z,97740.38
2022-10-24T17:41:28.729Z,97704.91
2022-10-24T17:43:55.674Z,97686.84
2022-10-24T17:46:22.737Z,97707.00
2022-10-24T17:48:50.611Z,97713.97
2022-10-24T17:51:22.419Z,97706.91
2022-10-24T17:53:49.422Z,97707.47
2022-10-24T17:56:17.588Z,97719.31
2022-10-24T17:58:51.053Z,97726.94
2022-10-24T18:01:17.880Z,97711.59
2022-10-24T18:03:44.787Z,97738.00
2022-10-24T18:06:12.667Z,97714.94
2022-10-24T18:08:39.296Z,97695.47
2022-10-24T18:11:09.062Z,97726.72
2022-10-24T18:13:37.259Z,97737.06
2022-10-24T18:16:11.989Z,97727.91
2022-10-24T18:18:42.827Z,97713.28
2022-10-24T18:21:21.584Z,97710.41
2022-10-24T18:23:48.756Z,97722.91
2022-10-24T18:26:20.838Z,97723.53
2022-10-24T18:28:49.875Z,97724.16
2022-10-24T18:31:19.765Z,97731.09
2022-10-24T18:33:46.849Z,97737.31
2022-10-24T18:36:19.353Z,97741.41
2022-10-24T18:38:46.123Z,97756.59
2022-10-24T18:42:09.926Z,97744.03
2022-10-24T18:44:37.798Z,97747.47
2022-10-24T18:47:06.977Z,97752.31
2022-10-24T18:49:35.165Z,97758.50
2022-10-24T18:52:17.833Z,97761.94
2022-10-24T18:54:58.488Z,97768.13
2022-10-24T18:57:31.297Z,97759.69
2022-10-24T18:59:58.463Z,97754.03
2022-10-24T19:03:14.574Z,97756.03
2022-10-24T19:05:47.797Z,97756.66
2022-10-24T19:08:24.179Z,97759.44
2022-10-24T19:10:52.871Z,97760.00
2022-10-24T19:13:19.520Z,97750.84
2022-10-24T19:15:52.651Z,97757.06
2022-10-24T19:18:19.624Z,97768.06
2022-10-24T19:20:46.277Z,97762.44
2022-10-24T19:23:14.672Z,97759.56
2022-10-24T19:25:41.562Z,97753.91
2022-10-24T19:28:11.036Z,97763.59
2022-10-24T19:30:40.810Z,97763.59
2022-10-24T19:33:07.586Z,97760.09
2022-10-24T19:35:36.879Z,97760.75
2022-10-24T19:38:03.566Z,97766.91
2022-10-24T19:40:30.181Z,97760.56
2022-10-24T19:42:57.580Z,97749.34
2022-10-24T19:45:25.364Z,97738.88
2022-10-24T19:47:55.794Z,97735.38
2022-10-24T19:50:22.626Z,97725.59
2022-10-24T19:52:49.195Z,97708.84
2022-10-24T19:55:16.030Z,97724.72
2022-10-24T19:57:42.744Z,97727.50
2022-10-24T20:00:10.260Z,97726.78
2022-10-24T20:02:36.830Z,97728.84
2022-10-24T20:05:03.527Z,97733.72
2022-10-24T20:07:30.371Z,97741.34
2022-10-24T20:09:57.130Z,97727.34
2022-10-24T20:12:23.798Z,97732.25
2022-10-24T20:14:50.702Z,97749.13
2022-10-24T20:17:17.281Z,97742.47
2022-10-24T20:19:44.046Z,97732.22
2022-10-24T20:22:10.691Z,97718.38
2022-10-24T20:24:37.322Z,97715.09
2022-10-24T20:27:04.096Z,97704.75
2022-10-24T20:29:30.686Z,97711.03
2022-10-24T20:31:57.493Z,97711.03
2022-10-24T20:34:24.262Z,97712.47
2022-10-24T20:36:50.876Z,97707.63
2022-10-24T20:39:20.913Z,97704.13
2022-10-24T20:41:51.764Z,97685.41
2022-10-24T20:44:20.887Z,97679.84
2022-10-24T20:46:47.665Z,97673.53
2022-10-24T20:49:14.241Z,97681.81
2022-10-24T20:51:42.430Z,97697.69
2022-10-24T20:54:10.352Z,97696.16
2022-10-24T20:56:42.050Z,97707.91
2022-10-24T20:59:11.996Z,97689.06
2022-10-24T21:01:38.651Z,97684.88
2022-10-24T21:04:05.409Z,97685.41
2022-10-24T21:06:33.994Z,97682.63
2022-10-24T21:11:35.549Z,97672.78
2022-10-24T21:14:05.139Z,97681.75
2022-10-24T21:16:32.477Z,97681.06
2022-10-24T21:19:00.038Z,97673.97
2022-10-24T21:21:27.109Z,97680.19
2022-10-24T21:23:55.929Z,97691.91
2022-10-24T21:26:23.258Z,97693.28
2022-10-24T21:28:59.328Z,97683.50
2022-10-24T21:31:35.426Z,97686.19
2022-10-24T21:34:02.355Z,97689.63
2022-10-24T21:36:28.978Z,97699.28
2022-10-24T21:38:59.762Z,97701.28
2022-10-24T21:41:27.739Z,97701.91
2022-10-24T21:43:55.144Z,97703.97
2022-10-24T21:46:24.167Z,97708.81
2022-10-24T21:48:52.156Z,97710.16
2022-10-24T21:51:30.153Z,97704.59
2022-10-24T21:54:13.753Z,97716.28
2022-10-24T21:56:40.590Z,97714.09
2022-10-24T21:59:11.701Z,97717.59
2022-10-24T22:01:39.007Z,97714.75
2022-10-24T22:04:06.948Z,97717.44
2022-10-24T22:06:35.217Z,97716.09
2022-10-24T22:09:02.805Z,97711.88
2022-10-24T22:11:31.275Z,97709.72
2022-10-24T22:13:58.842Z,97711.81
2022-10-24T22:16:28.022Z,97711.69
2022-10-24T22:18:55.167Z,97711.00
2022-10-24T22:21:33.684Z,97715.84
2022-10-24T22:24:09.467Z,97716.44
2022-10-24T22:26:36.784Z,97722.66
2022-10-24T22:29:05.314Z,97726.06
2022-10-24T22:31:32.286Z,97732.34
2022-10-24T22:33:59.072Z,97747.56
2022-10-24T22:37:08.950Z,97741.28
2022-10-24T22:39:36.026Z,97737.09
2022-10-24T22:42:03.050Z,97726.59
2022-10-24T22:44:30.191Z,97727.22
2022-10-24T22:47:24.100Z,97745.97
2022-10-24T22:50:31.442Z,97758.44
2022-10-24T22:52:58.601Z,97758.31
2022-10-24T22:55:32.847Z,97747.94
2022-10-24T22:57:59.981Z,97745.78
2022-10-24T23:00:27.191Z,97756.19
2022-10-24T23:03:01.874Z,97765.84
2022-10-24T23:06:00.055Z,97778.41
2022-10-24T23:08:37.709Z,97783.16
2022-10-24T23:11:04.792Z,97783.06
2022-10-24T23:13:31.991Z,97777.50
2022-10-24T23:16:53.014Z,97778.13
2022-10-24T23:19:30.632Z,97791.31
2022-10-24T23:22:07.255Z,97791.91
2022-10-24T23:24:34.210Z,97802.31
2022-10-24T23:27:18.531Z,97800.88
2022-10-24T23:29:46.724Z,97813.34
2022-10-24T23:32:24.133Z,97813.97
2022-10-24T23:34:51.799Z,97824.34
2022-10-24T23:37:33.451Z,97829.91
2022-10-24T23:40:02.158Z,97818.00
2022-10-24T23:42:29.214Z,97815.94
2022-10-24T23:44:56.290Z,97803.38
2022-10-24T23:47:42.773Z,97811.00
2022-10-24T23:50:40.375Z,97806.09
2022-10-24T23:53:20.735Z,97795.59
2022-10-24T23:55:47.857Z,97792.09
2022-10-24T23:58:14.908Z,97799.72
